createdAt,value
2023-09-08T00:01:00.010Z,10.13
2023-09-08T00:02:00.019Z,10.12
2023-09-08T00:03:00.050Z,10.07
2023-09-08T00:04:00.103Z,10.11
2023-09-08T00:05:00.074Z,10.14
2023-09-08T00:05:59.109Z,10.14
2023-09-08T00:06:59.157Z,10.16
2023-09-08T00:07:59.148Z,10.14
2023-09-08T00:08:59.200Z,10.03
2023-09-08T00:09:59.213Z,10.03
2023-09-08T00:10:59.240Z,10.05
2023-09-08T00:11:59.268Z,10.07
2023-09-08T00:12:59.279Z,10.07
2023-09-08T00:13:59.298Z,10.08
2023-09-08T00:14:59.316Z,9.96
2023-09-08T00:15:59.341Z,9.96
2023-09-08T00:16:59.418Z,9.941
2023-09-08T00:17:59.383Z,9.926
2023-09-08T00:18:59.383Z,9.9
2023-09-08T00:19:59.410Z,9.9
2023-09-08T00:20:59.447Z,9.866
2023-09-08T00:21:59.426Z,9.8
2023-09-08T00:22:59.471Z,9.822
2023-09-08T00:23:59.436Z,9.839
2023-09-08T00:24:59.447Z,9.806
2023-09-08T00:25:59.522Z,9.856
2023-09-08T00:26:59.529Z,9.957
2023-09-08T00:27:59.507Z,9.954
2023-09-08T00:28:59.561Z,9.988
2023-09-08T00:29:59.561Z,9.971
2023-09-08T00:30:59.584Z,9.971
2023-09-08T00:31:59.731Z,9.976
2023-09-08T00:32:59.759Z,9.959
2023-09-08T00:33:59.817Z,9.91
2023-09-08T00:34:59.709Z,9.893
2023-09-08T00:35:59.712Z,9.843
2023-09-08T00:36:59.729Z,9.755
2023-09-08T00:37:59.772Z,9.715
2023-09-08T00:38:59.774Z,9.76
2023-09-08T00:39:59.801Z,9.791
2023-09-08T00:40:59.829Z,9.808
2023-09-08T00:41:59.822Z,9.808
2023-09-08T00:42:59.844Z,9.843
2023-09-08T00:43:59.870Z,9.808
2023-09-08T00:44:59.876Z,9.789
2023-09-08T00:46:00.327Z,9.791
2023-09-08T00:46:59.880Z,9.841
2023-09-08T00:47:59.960Z,9.874
2023-09-08T00:48:59.900Z,9.8
2023-09-08T00:49:59.949Z,9.819
2023-09-08T00:50:59.966Z,9.852
2023-09-08T00:52:00.005Z,9.8
2023-09-08T00:53:00.022Z,9.8
2023-09-08T00:54:00.120Z,9.798
2023-09-08T00:55:00.106Z,9.76
2023-09-08T00:55:59.104Z,9.76
2023-09-08T00:56:59.130Z,9.776
2023-09-08T00:57:59.160Z,9.823
2023-09-08T00:58:59.177Z,9.84
2023-09-08T00:59:59.201Z,9.84
2023-09-08T01:00:59.246Z,9.84
2023-09-08T01:01:59.227Z,9.856
2023-09-08T01:02:59.380Z,9.856
2023-09-08T01:03:59.387Z,9.823
2023-09-08T01:04:59.281Z,9.875
2023-09-08T01:05:59.400Z,9.84
2023-09-08T01:06:59.302Z,9.84
2023-09-08T01:07:59.313Z,9.84
2023-09-08T01:08:59.405Z,9.84
2023-09-08T01:09:59.397Z,9.889
2023-09-08T01:10:59.342Z,9.889
2023-09-08T01:11:59.407Z,9.889
2023-09-08T01:12:59.399Z,9.856
2023-09-08T01:13:59.412Z,9.827
2023-09-08T01:14:59.453Z,9.876
2023-09-08T01:15:59.529Z,9.909
2023-09-08T01:16:59.559Z,9.916
2023-09-08T01:17:59.577Z,9.948
2023-09-08T01:18:59.628Z,9.916
2023-09-08T01:19:59.559Z,9.927
2023-09-08T01:20:59.569Z,9.894
2023-09-08T01:21:59.597Z,9.875
2023-09-08T01:22:59.607Z,9.894
2023-09-08T01:23:59.646Z,9.952
2023-09-08T01:24:59.653Z,9.968
2023-09-08T01:25:59.665Z,10.02
2023-09-08T01:26:59.679Z,10.07
2023-09-08T01:27:59.726Z,10.08
2023-09-08T01:28:59.697Z,10.09
2023-09-08T01:29:59.712Z,10.08
2023-09-08T01:30:59.835Z,10.08
2023-09-08T01:31:59.781Z,10.07
2023-09-08T01:32:59.794Z,10.08
2023-09-08T01:33:59.781Z,10.1
2023-09-08T01:34:59.808Z,10.04
2023-09-08T01:35:59.822Z,10.07
2023-09-08T01:36:59.848Z,10.05
2023-09-08T01:37:59.874Z,10.04
2023-09-08T01:38:59.976Z,10.04
2023-09-08T01:39:59.929Z,10.04
2023-09-08T01:40:59.941Z,10.04
2023-09-08T01:41:59.976Z,10
2023-09-08T01:43:00.027Z,9.955
2023-09-08T01:44:00.023Z,9.871
2023-09-08T01:45:00.045Z,9.806
2023-09-08T01:46:00.090Z,9.716
2023-09-08T01:47:00.076Z,9.634
2023-09-08T01:48:00.171Z,9.566
2023-09-08T01:48:59.172Z,9.516
2023-09-08T01:49:59.135Z,9.467
2023-09-08T01:50:59.123Z,9.459
2023-09-08T01:51:59.177Z,9.419
2023-09-08T01:52:59.134Z,9.55
2023-09-08T01:53:59.157Z,9.597
2023-09-08T01:54:59.208Z,9.632
2023-09-08T01:55:59.205Z,9.583
2023-09-08T01:56:59.233Z,9.564
2023-09-08T01:57:59.308Z,9.362
2023-09-08T01:58:59.287Z,9.327
2023-09-08T01:59:59.315Z,9.341
2023-09-08T02:00:59.368Z,9.423
2023-09-08T02:01:59.398Z,9.491
2023-09-08T02:02:59.432Z,9.429
2023-09-08T02:03:59.396Z,9.445
2023-09-08T02:04:59.532Z,9.445
2023-09-08T02:05:59.444Z,9.448
2023-09-08T02:06:59.473Z,9.339
2023-09-08T02:07:59.535Z,9.323
2023-09-08T02:08:59.484Z,9.278
2023-09-08T02:09:59.486Z,9.245
2023-09-08T02:10:59.497Z,9.2
2023-09-08T02:11:59.532Z,9.214
2023-09-08T02:12:59.515Z,9.277
2023-09-08T02:13:59.537Z,9.258
2023-09-08T02:14:59.656Z,9.342
2023-09-08T02:15:59.628Z,9.388
2023-09-08T02:16:59.595Z,9.436
2023-09-08T02:17:59.685Z,9.462
2023-09-08T02:18:59.699Z,9.494
2023-09-08T02:19:59.691Z,9.449
2023-09-08T02:20:59.743Z,9.414
2023-09-08T02:21:59.763Z,9.395
2023-09-08T02:22:59.778Z,9.395
2023-09-08T02:23:59.846Z,9.395
2023-09-08T02:24:59.825Z,9.379
2023-09-08T02:25:59.846Z,9.363
2023-09-08T02:26:59.872Z,9.372
2023-09-08T02:27:59.930Z,9.347
2023-09-08T02:28:59.936Z,9.33
2023-09-08T02:29:59.962Z,9.324
2023-09-08T02:30:59.968Z,9.314
2023-09-08T02:32:00.003Z,9.237
2023-09-08T02:33:00.040Z,9.221
2023-09-08T02:34:00.047Z,9.221
2023-09-08T02:35:00.082Z,9.237
2023-09-08T02:36:00.055Z,9.206
2023-09-08T02:37:00.084Z,9.187
2023-09-08T02:37:59.094Z,9.187
2023-09-08T02:38:59.103Z,9.171
2023-09-08T02:39:59.127Z,9.238
2023-09-08T02:40:59.129Z,9.245
2023-09-08T02:41:59.134Z,9.158
2023-09-08T02:42:59.164Z,9.226
2023-09-08T02:43:59.152Z,9.29
2023-09-08T02:44:59.190Z,9.409
2023-09-08T02:45:59.291Z,9.431
2023-09-08T02:46:59.246Z,9.431
2023-09-08T02:47:59.311Z,9.511
2023-09-08T02:48:59.349Z,9.479
2023-09-08T02:49:59.337Z,9.473
2023-09-08T02:50:59.379Z,9.527
2023-09-08T02:51:59.397Z,9.644
2023-09-08T02:52:59.413Z,9.644
2023-09-08T02:53:59.432Z,9.749
2023-09-08T02:54:59.465Z,9.717
2023-09-08T02:55:59.485Z,9.749
2023-09-08T02:56:59.500Z,9.765
2023-09-08T02:57:59.523Z,9.768
2023-09-08T02:58:59.539Z,9.8
2023-09-08T02:59:59.564Z,9.894
2023-09-08T03:00:59.578Z,9.898
2023-09-08T03:01:59.754Z,9.901
2023-09-08T03:02:59.677Z,9.917
2023-09-08T03:03:59.735Z,9.932
2023-09-08T03:04:59.668Z,9.917
2023-09-08T03:05:59.652Z,9.901
2023-09-08T03:06:59.666Z,9.904
2023-09-08T03:07:59.711Z,9.967
2023-09-08T03:08:59.669Z,9.967
2023-09-08T03:09:59.692Z,10.05
2023-09-08T03:10:59.726Z,10.04
2023-09-08T03:11:59.763Z,10.07
2023-09-08T03:12:59.790Z,10.12
2023-09-08T03:13:59.850Z,10.15
2023-09-08T03:14:59.830Z,10.22
2023-09-08T03:15:59.896Z,10.24
2023-09-08T03:16:59.914Z,10.28
2023-09-08T03:18:00.002Z,10.28
2023-09-08T03:18:59.929Z,10.28
2023-09-08T03:19:59.999Z,10.33
2023-09-08T03:20:59.982Z,10.31
2023-09-08T03:21:59.998Z,10.33
2023-09-08T03:23:00.009Z,10.36
2023-09-08T03:24:00.028Z,10.38
2023-09-08T03:25:00.036Z,10.44
2023-09-08T03:26:00.047Z,10.48
2023-09-08T03:27:00.080Z,10.5
2023-09-08T03:28:00.078Z,10.52
2023-09-08T03:29:00.085Z,10.57
2023-09-08T03:30:00.127Z,10.66
2023-09-08T03:30:59.126Z,10.71
2023-09-08T03:31:59.349Z,10.72
2023-09-08T03:32:59.271Z,10.76
2023-09-08T03:33:59.308Z,10.76
2023-09-08T03:34:59.206Z,10.82
2023-09-08T03:35:59.230Z,10.82
2023-09-08T03:36:59.264Z,10.81
2023-09-08T03:37:59.304Z,10.81
2023-09-08T03:38:59.321Z,10.86
2023-09-08T03:39:59.380Z,10.85
2023-09-08T03:40:59.378Z,10.91
2023-09-08T03:41:59.384Z,10.95
2023-09-08T03:42:59.462Z,10.99
2023-09-08T03:43:59.425Z,11
2023-09-08T03:44:59.432Z,11.05
2023-09-08T03:45:59.569Z,11.1
2023-09-08T03:47:01.701Z,11.16
2023-09-08T03:47:59.493Z,11.22
2023-09-08T03:48:59.499Z,11.28
2023-09-08T03:49:59.534Z,11.31
2023-09-08T03:50:59.528Z,11.31
2023-09-08T03:51:59.539Z,11.33
2023-09-08T03:52:59.545Z,11.3
2023-09-08T03:53:59.554Z,11.29
2023-09-08T03:54:59.567Z,11.28
2023-09-08T03:55:59.641Z,11.34
2023-09-08T03:56:59.686Z,11.35
2023-09-08T03:57:59.653Z,11.34
2023-09-08T03:58:59.688Z,11.35
2023-09-08T03:59:59.712Z,11.38
2023-09-08T04:00:59.793Z,11.44
2023-09-08T04:01:59.806Z,11.44
2023-09-08T04:02:59.862Z,11.47
2023-09-08T04:03:59.873Z,11.45
2023-09-08T04:04:59.819Z,11.49
2023-09-08T04:05:59.839Z,11.51
2023-09-08T04:06:59.875Z,11.49
2023-09-08T04:07:59.876Z,11.49
2023-09-08T04:08:59.951Z,11.51
2023-09-08T04:09:59.924Z,11.57
2023-09-08T04:10:59.923Z,11.59
2023-09-08T04:12:00.031Z,11.55
2023-09-08T04:12:59.960Z,11.56
2023-09-08T04:13:59.955Z,11.66
2023-09-08T04:15:00.013Z,11.67
2023-09-08T04:15:59.970Z,11.66
2023-09-08T04:16:59.993Z,11.63
2023-09-08T04:18:00.069Z,11.59
2023-09-08T04:19:00.088Z,11.6
2023-09-08T04:20:00.093Z,11.64
2023-09-08T04:20:59.148Z,11.63
2023-09-08T04:21:59.134Z,11.63
2023-09-08T04:22:59.148Z,11.63
2023-09-08T04:23:59.246Z,11.66
2023-09-08T04:24:59.192Z,11.66
2023-09-08T04:25:59.218Z,11.63
2023-09-08T04:26:59.251Z,11.69
2023-09-08T04:27:59.265Z,11.7
2023-09-08T04:28:59.289Z,11.66
2023-09-08T04:29:59.426Z,11.66
2023-09-08T04:30:59.358Z,11.67
2023-09-08T04:31:59.339Z,11.67
2023-09-08T04:32:59.426Z,11.73
2023-09-08T04:33:59.404Z,11.71
2023-09-08T04:34:59.378Z,11.68
2023-09-08T04:35:59.405Z,11.63
2023-09-08T04:36:59.475Z,11.65
2023-09-08T04:37:59.707Z,11.63
2023-09-08T04:38:59.410Z,11.61
2023-09-08T04:39:59.434Z,11.63
2023-09-08T04:40:59.458Z,11.64
2023-09-08T04:41:59.483Z,11.63
2023-09-08T04:42:59.515Z,11.56
2023-09-08T04:43:59.613Z,11.56
2023-09-08T04:44:59.569Z,11.56
2023-09-08T04:45:59.599Z,11.56
2023-09-08T04:46:59.644Z,11.56
2023-09-08T04:47:59.693Z,11.58
2023-09-08T04:48:59.680Z,11.56
2023-09-08T04:49:59.756Z,11.56
2023-09-08T04:50:59.749Z,11.51
2023-09-08T04:51:59.759Z,11.49
2023-09-08T04:52:59.793Z,11.49
2023-09-08T04:53:59.810Z,11.44
2023-09-08T04:54:59.816Z,11.45
2023-09-08T04:55:59.843Z,11.49
2023-09-08T04:57:11.744Z,11.49
2023-09-08T04:57:59.937Z,11.51
2023-09-08T04:58:59.901Z,11.48
2023-09-08T04:59:59.966Z,11.55
2023-09-08T05:00:59.991Z,11.5
2023-09-08T05:01:59.927Z,11.51
2023-09-08T05:03:00.054Z,11.53
2023-09-08T05:04:00.035Z,11.51
2023-09-08T05:04:59.953Z,11.53
2023-09-08T05:06:00.056Z,11.51
2023-09-08T05:06:59.981Z,11.54
2023-09-08T05:08:00.014Z,11.52
2023-09-08T05:09:00.084Z,11.5
2023-09-08T05:10:00.084Z,11.53
2023-09-08T05:10:59.093Z,11.54
2023-09-08T05:11:59.122Z,11.59
2023-09-08T05:12:59.146Z,11.59
2023-09-08T05:13:59.181Z,11.62
2023-09-08T05:14:59.203Z,11.66
2023-09-08T05:15:59.222Z,11.65
2023-09-08T05:16:59.245Z,11.68
2023-09-08T05:17:59.323Z,11.72
2023-09-08T05:18:59.379Z,11.77
2023-09-08T05:19:59.305Z,11.77
2023-09-08T05:20:59.325Z,11.73
2023-09-08T05:21:59.344Z,11.74
2023-09-08T05:22:59.360Z,11.78
2023-09-08T05:23:59.384Z,11.76
2023-09-08T05:24:59.601Z,11.8
2023-09-08T05:25:59.401Z,11.82
2023-09-08T05:26:59.422Z,11.89
2023-09-08T05:27:59.413Z,11.9
2023-09-08T05:28:59.418Z,11.9
2023-09-08T05:29:59.427Z,11.91
2023-09-08T05:30:59.464Z,11.89
2023-09-08T05:31:59.474Z,11.91
2023-09-08T05:32:59.593Z,11.93
2023-09-08T05:33:59.540Z,11.94
2023-09-08T05:34:59.557Z,11.97
2023-09-08T05:35:59.578Z,11.98
2023-09-08T05:36:59.687Z,11.98
2023-09-08T05:37:59.640Z,11.96
2023-09-08T05:38:59.661Z,11.92
2023-09-08T05:39:59.739Z,12
2023-09-08T05:40:59.706Z,11.99
2023-09-08T05:41:59.727Z,12.03
2023-09-08T05:42:59.767Z,12.02
2023-09-08T05:43:59.769Z,12
2023-09-08T05:44:59.790Z,12.07
2023-09-08T05:45:59.890Z,12.05
2023-09-08T05:46:59.967Z,12.08
2023-09-08T05:47:59.954Z,12.08
2023-09-08T05:48:59.894Z,12.08
2023-09-08T05:49:59.860Z,12.06
2023-09-08T05:50:59.879Z,12.05
2023-09-08T05:51:59.952Z,12.03
2023-09-08T05:52:59.886Z,12.13
2023-09-08T05:54:00.000Z,12.11
2023-09-08T05:55:02.606Z,12.15
2023-09-08T05:55:59.958Z,12.14
2023-09-08T05:56:59.973Z,12.16
2023-09-08T05:58:00.002Z,12.14
2023-09-08T05:59:00.043Z,12.16
2023-09-08T06:00:00.134Z,12.18
2023-09-08T06:01:00.079Z,12.17
2023-09-08T06:01:59.166Z,12.2
2023-09-08T06:02:59.265Z,12.18
2023-09-08T06:03:59.396Z,12.18
2023-09-08T06:04:59.173Z,12.15
2023-09-08T06:05:59.239Z,12.19
2023-09-08T06:06:59.314Z,12.22
2023-09-08T06:08:07.203Z,12.22
2023-09-08T06:08:59.290Z,12.18
2023-09-08T06:09:59.285Z,12.24
2023-09-08T06:10:59.361Z,12.24
2023-09-08T06:11:59.306Z,12.3
2023-09-08T06:12:59.322Z,12.31
2023-09-08T06:13:59.343Z,12.28
2023-09-08T06:14:59.348Z,12.3
2023-09-08T06:15:59.348Z,12.28
2023-09-08T06:16:59.397Z,12.36
2023-09-08T06:17:59.402Z,12.3
2023-09-08T06:18:59.373Z,12.32
2023-09-08T06:19:59.392Z,12.29
2023-09-08T06:20:59.478Z,12.26
2023-09-08T06:21:59.441Z,12.22
2023-09-08T06:22:59.487Z,12.26
2023-09-08T06:23:59.571Z,12.31
2023-09-08T06:24:59.525Z,12.33
2023-09-08T06:25:59.550Z,12.31
2023-09-08T06:26:59.621Z,12.31
2023-09-08T06:27:59.594Z,12.33
2023-09-08T06:28:59.614Z,12.34
2023-09-08T06:29:59.642Z,12.27
2023-09-08T06:30:59.725Z,12.28
2023-09-08T06:31:59.692Z,12.29
2023-09-08T06:32:59.835Z,12.34
2023-09-08T06:33:59.898Z,12.43
2023-09-08T06:34:59.753Z,12.36
2023-09-08T06:35:59.752Z,12.38
2023-09-08T06:36:59.775Z,12.37
2023-09-08T06:37:59.777Z,12.41
2023-09-08T06:38:59.787Z,12.38
2023-09-08T06:39:59.797Z,12.36
2023-09-08T06:40:59.807Z,12.33
2023-09-08T06:41:59.821Z,12.3
2023-09-08T06:43:01.339Z,12.32
2023-09-08T06:43:59.861Z,12.32
2023-09-08T06:44:59.878Z,12.28
2023-09-08T06:45:59.994Z,12.29
2023-09-08T06:46:59.954Z,12.29
2023-09-08T06:48:00.078Z,12.28
2023-09-08T06:49:00.814Z,12.33
2023-09-08T06:50:00.023Z,12.33
2023-09-08T06:51:00.163Z,12.4
2023-09-08T06:52:00.077Z,12.3
2023-09-08T06:52:59.102Z,12.18
2023-09-08T06:53:59.159Z,12.17
2023-09-08T06:54:59.148Z,12.18
2023-09-08T06:55:59.179Z,12.2
2023-09-08T06:56:59.196Z,12.19
2023-09-08T06:57:59.247Z,12.16
2023-09-08T06:58:59.247Z,12.15
2023-09-08T06:59:59.271Z,11.94
2023-09-08T07:00:59.353Z,11.94
2023-09-08T07:01:59.478Z,11.9
2023-09-08T07:02:59.365Z,11.92
2023-09-08T07:03:59.507Z,11.97
2023-09-08T07:04:59.517Z,11.92
2023-09-08T07:05:59.352Z,11.93
2023-09-08T07:06:59.370Z,11.96
2023-09-08T07:07:59.352Z,11.92
2023-09-08T07:08:59.385Z,11.96
2023-09-08T07:09:59.406Z,12.01
2023-09-08T07:10:59.478Z,11.95
2023-09-08T07:11:59.456Z,12
2023-09-08T07:12:59.484Z,12
2023-09-08T07:13:59.509Z,12.06
2023-09-08T07:14:59.533Z,12.01
2023-09-08T07:15:59.575Z,12
2023-09-08T07:16:59.766Z,11.99
2023-09-08T07:17:59.657Z,12.01
2023-09-08T07:18:59.628Z,12.13
2023-09-08T07:19:59.662Z,12.04
2023-09-08T07:20:59.679Z,12.06
2023-09-08T07:21:59.700Z,12
2023-09-08T07:22:59.848Z,11.93
2023-09-08T07:23:59.732Z,12.01
2023-09-08T07:24:59.741Z,12.1
2023-09-08T07:25:59.771Z,12.04
2023-09-08T07:26:59.784Z,12.1
2023-09-08T07:27:59.802Z,12.2
2023-09-08T07:28:59.839Z,12.18
2023-09-08T07:29:59.901Z,12.06
2023-09-08T07:30:59.934Z,12.01
2023-09-08T07:31:59.911Z,12.06
2023-09-08T07:32:59.887Z,12.01
2023-09-08T07:33:59.869Z,12.01
2023-09-08T07:34:59.930Z,12.12
2023-09-08T07:35:59.921Z,12.15
2023-09-08T07:36:59.938Z,12.18
2023-09-08T07:37:59.954Z,12.14
2023-09-08T07:38:59.987Z,12.1
2023-09-08T07:40:00.006Z,12.1
2023-09-08T07:41:00.032Z,12.15
2023-09-08T07:42:01.916Z,12.05
2023-09-08T07:43:00.085Z,12.13
2023-09-08T07:43:59.238Z,12.27
2023-09-08T07:44:59.116Z,12.27
2023-09-08T07:45:59.215Z,12.32
2023-09-08T07:46:59.149Z,12.33
2023-09-08T07:47:59.335Z,12.49
2023-09-08T07:48:59.177Z,12.34
2023-09-08T07:49:59.193Z,12.32
2023-09-08T07:50:59.192Z,12.35
2023-09-08T07:51:59.204Z,12.28
2023-09-08T07:52:59.209Z,12.32
2023-09-08T07:53:59.337Z,12.32
2023-09-08T07:54:59.225Z,12.34
2023-09-08T07:55:59.278Z,12.35
2023-09-08T07:56:59.278Z,12.37
2023-09-08T07:57:59.295Z,12.37
2023-09-08T07:58:59.358Z,12.51
2023-09-08T07:59:59.345Z,12.63
2023-09-08T08:00:59.402Z,12.5
2023-09-08T08:01:59.422Z,12.54
2023-09-08T08:02:59.435Z,12.69
2023-09-08T08:03:59.509Z,12.6
2023-09-08T08:04:59.448Z,12.63
2023-09-08T08:05:59.571Z,12.63
2023-09-08T08:06:59.499Z,12.76
2023-09-08T08:07:59.500Z,12.76
2023-09-08T08:09:01.579Z,12.87
2023-09-08T08:09:59.527Z,12.72
2023-09-08T08:10:59.529Z,12.68
2023-09-08T08:11:59.564Z,12.65
2023-09-08T08:12:59.555Z,12.61
2023-09-08T08:13:59.555Z,12.73
2023-09-08T08:14:59.608Z,12.75
2023-09-08T08:15:59.697Z,12.63
2023-09-08T08:16:59.652Z,12.63
2023-09-08T08:17:59.721Z,12.68
2023-09-08T08:18:59.729Z,12.78
2023-09-08T08:19:59.727Z,12.77
2023-09-08T08:20:59.746Z,12.78
2023-09-08T08:21:59.773Z,12.66
2023-09-08T08:22:59.800Z,12.67
2023-09-08T08:23:59.827Z,12.65
2023-09-08T08:24:59.852Z,12.64
2023-09-08T08:25:59.881Z,12.8
2023-09-08T08:26:59.899Z,12.92
2023-09-08T08:27:59.927Z,13.02
2023-09-08T08:28:59.952Z,12.94
2023-09-08T08:29:59.964Z,12.9
2023-09-08T08:31:00.052Z,12.86
2023-09-08T08:32:00.030Z,12.84
2023-09-08T08:33:00.059Z,12.83
2023-09-08T08:34:00.097Z,12.84
2023-09-08T08:35:00.062Z,12.95
2023-09-08T08:36:00.075Z,12.98
2023-09-08T08:37:00.092Z,12.98
2023-09-08T08:37:59.103Z,12.91
2023-09-08T08:38:59.117Z,12.91
2023-09-08T08:39:59.115Z,12.95
2023-09-08T08:40:59.128Z,13.18
2023-09-08T08:41:59.164Z,13.2
2023-09-08T08:43:01.529Z,13.23
2023-09-08T08:43:59.173Z,13.12
2023-09-08T08:44:59.204Z,12.97
2023-09-08T08:45:59.280Z,13.1
2023-09-08T08:46:59.275Z,13.08
2023-09-08T08:47:59.529Z,13.08
2023-09-08T08:48:59.308Z,12.98
2023-09-08T08:49:59.331Z,12.94
2023-09-08T08:50:59.415Z,12.86
2023-09-08T08:51:59.404Z,12.92
2023-09-08T08:52:59.409Z,12.9
2023-09-08T08:53:59.422Z,12.88
2023-09-08T08:54:59.454Z,12.99
2023-09-08T08:55:59.467Z,13.19
2023-09-08T08:56:59.509Z,13.16
2023-09-08T08:57:59.498Z,12.91
2023-09-08T08:58:59.525Z,12.95
2023-09-08T08:59:59.549Z,13.25
2023-09-08T09:00:59.612Z,13.34
2023-09-08T09:01:59.565Z,13.11
2023-09-08T09:03:12.055Z,13.06
2023-09-08T09:03:59.634Z,13.11
2023-09-08T09:04:59.588Z,13.13
2023-09-08T09:05:59.592Z,13.07
2023-09-08T09:06:59.622Z,13.18
2023-09-08T09:07:59.663Z,13.16
2023-09-08T09:08:59.685Z,13.11
2023-09-08T09:09:59.701Z,13.1
2023-09-08T09:10:59.825Z,13.17
2023-09-08T09:11:59.746Z,13.14
2023-09-08T09:12:59.786Z,13.03
2023-09-08T09:13:59.822Z,13.18
2023-09-08T09:14:59.875Z,13.13
2023-09-08T09:15:59.891Z,13.11
2023-09-08T09:16:59.881Z,13.12
2023-09-08T09:17:59.961Z,12.98
2023-09-08T09:18:59.937Z,13.09
2023-09-08T09:19:59.947Z,13.11
2023-09-08T09:20:59.976Z,13.12
2023-09-08T09:22:00.006Z,13.01
2023-09-08T09:23:00.033Z,12.93
2023-09-08T09:24:00.100Z,13.09
2023-09-08T09:25:00.150Z,13.03
2023-09-08T09:26:00.264Z,13.23
2023-09-08T09:27:00.061Z,13.41
2023-09-08T09:28:00.068Z,13.38
2023-09-08T09:29:00.065Z,13.27
2023-09-08T09:30:00.115Z,13.16
2023-09-08T09:30:59.094Z,13.13
2023-09-08T09:31:59.131Z,13.1
2023-09-08T09:32:59.231Z,13.01
2023-09-08T09:33:59.184Z,12.98
2023-09-08T09:34:59.195Z,13.23
2023-09-08T09:35:59.229Z,13.17
2023-09-08T09:36:59.240Z,12.84
2023-09-08T09:37:59.267Z,12.84
2023-09-08T09:38:59.285Z,13.05
2023-09-08T09:39:59.369Z,13.32
2023-09-08T09:40:59.357Z,13.38
2023-09-08T09:41:59.352Z,13.51
2023-09-08T09:42:59.415Z,13.54
2023-09-08T09:43:59.391Z,13.53
2023-09-08T09:44:59.406Z,13.43
2023-09-08T09:45:59.510Z,13.44
2023-09-08T09:46:59.442Z,13.54
2023-09-08T09:47:59.489Z,13.56
2023-09-08T09:48:59.477Z,13.33
2023-09-08T09:49:59.471Z,13.34
2023-09-08T09:50:59.496Z,13.27
2023-09-08T09:51:59.484Z,13.31
2023-09-08T09:52:59.495Z,13.36
2023-09-08T09:53:59.590Z,13.46
2023-09-08T09:54:59.571Z,13.67
2023-09-08T09:55:59.595Z,13.59
2023-09-08T09:56:59.599Z,13.77
2023-09-08T09:57:59.632Z,13.84
2023-09-08T09:58:59.736Z,13.68
2023-09-08T09:59:59.749Z,13.43
2023-09-08T10:00:59.819Z,13.5
2023-09-08T10:01:59.781Z,13.63
2023-09-08T10:02:59.847Z,13.61
2023-09-08T10:03:59.902Z,13.42
2023-09-08T10:04:59.799Z,13.3
2023-09-08T10:05:59.927Z,13.55
2023-09-08T10:06:59.959Z,13.68
2023-09-08T10:07:59.925Z,13.59
2023-09-08T10:08:59.880Z,13.6
2023-09-08T10:09:59.901Z,13.51
2023-09-08T10:10:59.907Z,13.48
2023-09-08T10:11:59.921Z,13.53
2023-09-08T10:12:59.941Z,13.57
2023-09-08T10:13:59.947Z,13.67
2023-09-08T10:15:00.008Z,13.45
2023-09-08T10:15:59.973Z,13.57
2023-09-08T10:17:00.022Z,13.66
2023-09-08T10:18:00.109Z,13.7
2023-09-08T10:19:00.149Z,13.64
2023-09-08T10:20:00.049Z,13.4
2023-09-08T10:21:00.074Z,13.44
2023-09-08T10:21:59.103Z,13.48
2023-09-08T10:22:59.133Z,13.36
2023-09-08T10:23:59.147Z,13.48
2023-09-08T10:24:59.169Z,13.27
2023-09-08T10:26:00.995Z,13.31
2023-09-08T10:26:59.229Z,13.33
2023-09-08T10:27:59.256Z,13.49
2023-09-08T10:28:59.275Z,13.58
2023-09-08T10:29:59.298Z,13.65
2023-09-08T10:30:59.330Z,13.5
2023-09-08T10:31:59.361Z,13.48
2023-09-08T10:32:59.401Z,13.68
2023-09-08T10:33:59.386Z,13.53
2023-09-08T10:34:59.477Z,13.68
2023-09-08T10:35:59.413Z,13.85
2023-09-08T10:36:59.442Z,13.49
2023-09-08T10:37:59.429Z,13.31
2023-09-08T10:38:59.437Z,13.57
2023-09-08T10:39:59.507Z,13.62
2023-09-08T10:40:59.447Z,13.45
2023-09-08T10:41:59.473Z,13.62
2023-09-08T10:42:59.561Z,13.58
2023-09-08T10:43:59.585Z,13.38
2023-09-08T10:44:59.550Z,13.33
2023-09-08T10:45:59.617Z,13.31
2023-09-08T10:46:59.659Z,13.28
2023-09-08T10:47:59.679Z,13.5
2023-09-08T10:48:59.695Z,13.72
2023-09-08T10:50:00.792Z,13.64
2023-09-08T10:50:59.698Z,13.59
2023-09-08T10:51:59.768Z,13.54
2023-09-08T10:52:59.724Z,13.69
2023-09-08T10:53:59.755Z,13.75
2023-09-08T10:54:59.790Z,13.64
2023-09-08T10:56:16.404Z,13.93
2023-09-08T10:56:59.789Z,13.65
2023-09-08T10:57:59.784Z,13.8
2023-09-08T10:58:59.811Z,13.71
2023-09-08T10:59:59.794Z,13.58
2023-09-08T11:00:59.798Z,13.52
2023-09-08T11:01:59.902Z,13.28
2023-09-08T11:03:00.006Z,13.42
2023-09-08T11:03:59.972Z,13.48
2023-09-08T11:04:59.904Z,13.49
2023-09-08T11:06:00.092Z,13.38
2023-09-08T11:06:59.968Z,13.25
2023-09-08T11:07:59.976Z,12.92
2023-09-08T11:09:00.004Z,12.88
2023-09-08T11:10:00.032Z,12.99
2023-09-08T11:11:00.048Z,13.02
2023-09-08T11:12:00.079Z,12.87
2023-09-08T11:13:00.088Z,13.15
2023-09-08T11:14:01.154Z,13.39
2023-09-08T11:14:59.128Z,13.23
2023-09-08T11:15:59.176Z,13.27
2023-09-08T11:16:59.151Z,13.48
2023-09-08T11:17:59.249Z,13.45
2023-09-08T11:18:59.174Z,13.42
2023-09-08T11:19:59.171Z,13.24
2023-09-08T11:20:59.258Z,13.03
2023-09-08T11:21:59.187Z,12.95
2023-09-08T11:22:59.215Z,13.09
2023-09-08T11:23:59.255Z,12.73
2023-09-08T11:24:59.280Z,13.02
2023-09-08T11:25:59.331Z,13.16
2023-09-08T11:26:59.336Z,12.84
2023-09-08T11:27:59.373Z,12.89
2023-09-08T11:28:59.386Z,12.94
2023-09-08T11:29:59.410Z,12.77
2023-09-08T11:30:59.475Z,12.85
2023-09-08T11:31:59.504Z,12.65
2023-09-08T11:32:59.497Z,12.59
2023-09-08T11:33:59.514Z,12.81
2023-09-08T11:34:59.522Z,12.62
2023-09-08T11:35:59.592Z,12.34
2023-09-08T11:36:59.590Z,12.43
2023-09-08T11:37:59.580Z,12.54
2023-09-08T11:38:59.602Z,12.24
2023-09-08T11:39:59.673Z,12.12
2023-09-08T11:40:59.666Z,12.34
2023-09-08T11:41:59.639Z,12.48
2023-09-08T11:42:59.671Z,12.22
2023-09-08T11:43:59.706Z,12.2
2023-09-08T11:44:59.657Z,11.97
2023-09-08T11:45:59.707Z,11.97
2023-09-08T11:46:59.777Z,12.1
2023-09-08T11:47:59.776Z,12.24
2023-09-08T11:48:59.814Z,12.26
2023-09-08T11:49:59.766Z,12.6
2023-09-08T11:50:59.795Z,12.68
2023-09-08T11:51:59.841Z,12.43
2023-09-08T11:52:59.842Z,12.59
2023-09-08T11:53:59.851Z,12.55
2023-09-08T11:55:07.113Z,12.26
2023-09-08T11:55:59.952Z,12.26
2023-09-08T11:56:59.911Z,12.6
2023-09-08T11:57:59.932Z,12.29
2023-09-08T11:59:00.035Z,12.37
2023-09-08T11:59:59.965Z,12.21
2023-09-08T12:01:00.034Z,11.84
2023-09-08T12:01:59.980Z,11.74
2023-09-08T12:03:00.028Z,11.68
2023-09-08T12:04:00.055Z,12.1
2023-09-08T12:05:00.014Z,12.16
2023-09-08T12:06:00.020Z,12.04
2023-09-08T12:07:00.057Z,12.1
2023-09-08T12:08:00.075Z,12.04
2023-09-08T12:09:00.085Z,12.12
2023-09-08T12:09:59.147Z,11.97
2023-09-08T12:10:59.125Z,11.85
2023-09-08T12:11:59.157Z,12.05
2023-09-08T12:12:59.209Z,12.07
2023-09-08T12:13:59.208Z,12.1
2023-09-08T12:14:59.237Z,12.12
2023-09-08T12:15:59.371Z,11.79
2023-09-08T12:16:59.316Z,11.53
2023-09-08T12:17:59.340Z,11.43
2023-09-08T12:18:59.334Z,11.85
2023-09-08T12:19:59.353Z,11.46
2023-09-08T12:20:59.374Z,11.49
2023-09-08T12:21:59.413Z,11.4
2023-09-08T12:22:59.403Z,11.4
2023-09-08T12:23:59.427Z,11.37
2023-09-08T12:24:59.440Z,11.29
2023-09-08T12:25:59.448Z,11.35
2023-09-08T12:26:59.494Z,11.41
2023-09-08T12:27:59.497Z,11.29
2023-09-08T12:28:59.476Z,10.97
2023-09-08T12:29:59.479Z,10.82
2023-09-08T12:30:59.553Z,10.94
2023-09-08T12:31:59.543Z,10.94
2023-09-08T12:32:59.581Z,10.7
2023-09-08T12:33:59.613Z,10.66
2023-09-08T12:34:59.593Z,10.35
2023-09-08T12:35:59.635Z,10.66
2023-09-08T12:36:59.722Z,11
2023-09-08T12:37:59.682Z,10.97
2023-09-08T12:38:59.708Z,11.07
2023-09-08T12:39:59.797Z,11.09
2023-09-08T12:40:59.772Z,11.1
2023-09-08T12:41:59.777Z,11.1
2023-09-08T12:43:04.051Z,10.88
2023-09-08T12:43:59.821Z,10.7
2023-09-08T12:44:59.900Z,10.82
2023-09-08T12:45:59.909Z,10.7
2023-09-08T12:46:59.943Z,10.68
2023-09-08T12:47:59.938Z,10.89
2023-09-08T12:48:59.921Z,10.77
2023-09-08T12:49:59.978Z,11.01
2023-09-08T12:50:59.929Z,10.4
2023-09-08T12:51:59.944Z,10.68
2023-09-08T12:52:59.944Z,10.55
2023-09-08T12:53:59.974Z,10.55
2023-09-08T12:54:59.972Z,10.67
2023-09-08T12:56:00.004Z,10.83
2023-09-08T12:57:00.016Z,11.22